KVIH/VIH METAR and TAF weather

Enter ICAO airport designator
Station Type Date Time Source
KVIH METAR 2019/06/27 07:53 UTC NOAA

KVIH 270753Z AUTO 21008KT 4SM HZ CLR 20/17 A3016 RMK AO2 SLP202 T02000172 $


Station Type Date Time Source
KVIH Decoded METAR 2019/06/27 07:53 UTC NOAA

ROLLA/VICHY ROLLA NATIONAL, MO, United States (KVIH) 38-08N 91-46W 333M
Jun 27, 2019 - 03:53 AM EDT / 2019.06.27 0753 UTC
Wind: from the SSW (210 degrees) at 9 MPH (8 KT):0
Visibility: 4 mile(s):0
Sky conditions: clear
Weather: haze
Temperature: 68.0 F (20.0 C)
Dew Point: 63.0 F (17.2 C)
Relative Humidity: 83%
Pressure (altimeter): 30.16 in. Hg (1021 hPa)
ob: KVIH 270753Z AUTO 21008KT 4SM HZ CLR 20/17 A3016 RMK AO2 SLP202 T02000172
cycle: 8

Station Type Date Time Source
KVIH TAF UTC NOAA

Error!

Example: see airport list